Weather at Minneapolis–Saint Paul International Airport / Wold–Chamberlain Field

Public forecast

Using degrees Fahrenheit for public forecast. Weather courtesy of forecast.io.

Current aviation weather report (METAR) for Minneapolis–Saint Paul International Airport / Wold–Chamberlain Field

Retrieved 2022/05/23 06:53 UTC (54 minutes ago):

KMSP 230653Z 00000KT 10SM FEW085 09/M02 A3037 RMK AO2 SLP288 T00941017

Aviation forecast (TAF) for Minneapolis–Saint Paul International Airport / Wold–Chamberlain Field

Retrieved 2022/05/23 06:22 UTC (1 hour ago):

TAF KMSP 230520Z 2306/2412 VRB03KT P6SM FEW080 FM231600 14007KT P6SM SCT080 BKN150